Time;durP1;ratioP1;P1;durP2;ratioP2;P2;SDS_P1;SDS_P2;PMS_P1;PMS_P2;Temp;Humidity;BMP_temperature;BMP_pressure;BME280_temperature;BME280_humidity;BME280_pressure;Samples;Min_cycle;Max_cycle;Signal;HPM_P1;HPM_P2
2022/04/18 00:02:17;;;;;;;0.60;0.60;;;5.90;85.90;;;;;;4954913;28;20051;-82
2022/04/18 00:04:43;;;;;;;0.60;0.60;;;5.80;87.70;;;;;;5038278;28;20121;-79
2022/04/18 00:07:10;;;;;;;;;;;5.80;85.10;;;;;;4975561;28;20111;-81
2022/04/18 00:09:36;;;;;;;0.50;0.50;;;5.70;86.20;;;;;;4971902;28;19918;-79
2022/04/18 00:12:02;;;;;;;;;;;5.70;85.50;;;;;;4955572;28;20043;-81
2022/04/18 00:14:28;;;;;;;0.60;0.60;;;5.60;89.20;;;;;;4971564;28;19957;-79
2022/04/18 00:16:54;;;;;;;0.73;0.73;;;5.60;86.50;;;;;;4939859;28;20046;-79
2022/04/18 00:19:20;;;;;;;0.73;0.73;;;5.50;86.50;;;;;;4939759;28;20070;-82
2022/04/18 00:21:45;;;;;;;1.02;1.00;;;5.50;88.50;;;;;;4939037;28;20467;-78
2022/04/18 00:24:13;;;;;;;0.70;0.70;;;5.50;85.60;;;;;;4951608;29;20488;-79
2022/04/18 00:26:40;;;;;;;0.70;0.70;;;5.40;90.70;;;;;;4967595;28;20045;-81
2022/04/18 00:29:06;;;;;;;;;;;5.40;89.60;;;;;;4971288;28;20503;-80
2022/04/18 00:31:32;;;;;;;0.70;0.70;;;5.40;90.60;;;;;;4969523;28;19926;-77
2022/04/18 00:33:58;;;;;;;0.52;0.52;;;5.40;91.50;;;;;;4967476;28;20122;-80
2022/04/18 00:36:24;;;;;;;0.68;0.68;;;5.30;90.90;;;;;;5019868;28;20071;-81
2022/04/18 00:38:50;;;;;;;;;;;5.30;90.50;;;;;;4954426;28;20137;-80
2022/04/18 00:41:16;;;;;;;0.85;0.85;;;5.40;93.10;;;;;;4954278;28;19965;-80
2022/04/18 00:43:44;;;;;;;0.70;0.70;;;5.30;92.70;;;;;;4971918;28;20334;-80
2022/04/18 00:46:10;;;;;;;0.75;0.75;;;5.30;92.50;;;;;;4979100;28;20042;-81
2022/04/18 00:48:36;;;;;;;0.60;0.60;;;5.30;92.60;;;;;;4987765;28;20038;-78
2022/04/18 00:51:04;;;;;;;0.70;0.70;;;5.30;92.40;;;;;;4971898;28;20074;-79
2022/04/18 00:53:31;;;;;;;0.80;0.80;;;5.20;93.20;;;;;;4943690;28;20074;-80
2022/04/18 00:55:57;;;;;;;0.60;0.60;;;5.20;93.70;;;;;;4953176;28;20124;-81
2022/04/18 00:58:24;;;;;;;0.60;0.60;;;5.20;94.50;;;;;;4986243;28;20086;-79
2022/04/18 01:00:49;;;;;;;0.60;0.60;;;5.10;93.80;;;;;;5037593;28;20049;-81
2022/04/18 01:03:15;;;;;;;0.70;0.70;;;5.10;94.80;;;;;;4950696;28;20127;-81
2022/04/18 01:05:41;;;;;;;0.70;0.70;;;5.10;93.30;;;;;;4938267;28;20053;-79
2022/04/18 01:08:08;;;;;;;0.60;0.60;;;5.00;95.20;;;;;;4953909;28;20078;-82
2022/04/18 01:10:33;;;;;;;;;;;5.00;96.50;;;;;;4938340;28;20038;-78
2022/04/18 01:12:59;;;;;;;0.52;0.52;;;5.20;96.90;;;;;;4950528;29;20232;-81
2022/04/18 01:15:24;;;;;;;0.60;0.60;;;5.00;97.00;;;;;;4966203;28;20043;-79
2022/04/18 01:17:50;;;;;;;0.60;0.60;;;4.90;96.60;;;;;;4963709;28;20069;-79
2022/04/18 01:20:16;;;;;;;0.70;0.70;;;4.90;97.10;;;;;;4970236;28;20039;-79
2022/04/18 01:22:44;;;;;;;0.50;0.50;;;4.80;97.80;;;;;;4971206;28;20068;-81
2022/04/18 01:30:39;;;;;;;0.75;0.75;;;4.70;98.60;;;;;;4969709;28;20100;-80
2022/04/18 01:33:05;;;;;;;0.70;0.70;;;4.70;99.20;;;;;;4953637;28;20053;-83
2022/04/18 01:35:31;;;;;;;0.75;0.75;;;4.60;99.20;;;;;;4970325;28;20074;-82
2022/04/18 01:37:56;;;;;;;0.68;0.68;;;4.70;99.70;;;;;;4950028;28;20546;-78
2022/04/18 01:40:22;;;;;;;0.63;0.63;;;4.50;99.90;;;;;;4960997;28;20053;-79
2022/04/18 01:42:48;;;;;;;0.75;0.75;;;4.50;99.90;;;;;;4986003;28;20086;-79
2022/04/18 01:45:13;;;;;;;0.80;0.80;;;4.50;99.90;;;;;;5037462;28;20051;-78
2022/04/18 01:47:39;;;;;;;0.70;0.70;;;4.50;99.90;;;;;;4952780;28;20520;-80
2022/04/18 01:50:05;;;;;;;0.95;0.95;;;4.40;99.90;;;;;;4950203;28;20043;-78
2022/04/18 01:52:31;;;;;;;;;;;4.40;99.90;;;;;;4973983;28;20157;-79
2022/04/18 01:54:57;;;;;;;0.70;0.70;;;4.40;99.90;;;;;;4959158;28;19995;-80
2022/04/18 01:57:22;;;;;;;0.80;0.80;;;4.40;99.90;;;;;;4940852;29;20065;-79
2022/04/18 01:59:48;;;;;;;0.70;0.70;;;4.30;99.90;;;;;;4947646;28;20051;-82
2022/04/18 02:02:17;;;;;;;0.60;0.60;;;4.30;99.90;;;;;;4922168;28;20039;-79
2022/04/18 02:04:43;;;;;;;1.20;1.17;;;4.30;99.90;;;;;;4945672;28;20054;-78
2022/04/18 02:07:10;;;;;;;0.93;0.93;;;4.40;99.90;;;;;;4939891;28;20055;-80
2022/04/18 02:09:37;;;;;;;0.68;0.68;;;4.20;99.90;;;;;;4972691;28;20110;-79
2022/04/18 02:12:05;;;;;;;0.80;0.80;;;4.20;99.90;;;;;;4940207;28;20468;-79
2022/04/18 02:14:30;;;;;;;0.70;0.70;;;4.20;99.90;;;;;;4956687;28;20035;-81
2022/04/18 02:16:56;;;;;;;0.75;0.75;;;5.00;99.90;;;;;;4940213;28;20046;-79
2022/04/18 02:19:22;;;;;;;0.70;0.70;;;4.20;99.90;;;;;;4940779;28;20043;-80
2022/04/18 02:21:48;;;;;;;0.70;0.70;;;4.10;99.90;;;;;;4973155;28;20077;-81
2022/04/18 02:24:14;;;;;;;0.60;0.60;;;4.10;99.90;;;;;;4953264;29;20126;-78
2022/04/18 02:26:40;;;;;;;0.70;0.70;;;4.10;99.90;;;;;;5037079;28;20121;-80
2022/04/18 02:29:06;;;;;;;0.75;0.75;;;4.00;99.90;;;;;;4939795;28;20046;-81
2022/04/18 02:31:31;;;;;;;0.75;0.75;;;4.20;99.90;;;;;;4940241;28;20122;-77
2022/04/18 02:33:57;;;;;;;0.60;0.60;;;4.00;99.90;;;;;;4963364;28;20038;-79
2022/04/18 02:36:23;;;;;;;0.80;0.80;;;4.00;99.90;;;;;;4952767;29;20047;-80
2022/04/18 02:38:48;;;;;;;2.00;1.50;;;4.00;99.90;;;;;;4920945;29;20039;-78
2022/04/18 02:41:14;;;;;;;0.60;0.60;;;3.90;99.90;;;;;;4935493;29;20087;-79
2022/04/18 02:43:40;;;;;;;0.70;0.70;;;3.90;99.90;;;;;;4963744;28;20105;-79
2022/04/18 02:46:05;;;;;;;0.70;0.70;;;4.00;99.90;;;;;;4971743;28;20389;-79
2022/04/18 02:48:31;;;;;;;0.70;0.70;;;4.50;99.90;;;;;;4975813;28;20050;-78
2022/04/18 02:50:57;;;;;;;0.85;0.85;;;3.90;99.90;;;;;;4942672;28;20126;-79
2022/04/18 02:53:23;;;;;;;1.17;1.15;;;4.40;99.90;;;;;;4929187;28;20089;-80
2022/04/18 02:55:50;;;;;;;0.95;0.95;;;3.80;99.90;;;;;;4954676;28;20054;-80
2022/04/18 02:58:15;;;;;;;0.80;0.80;;;3.80;99.90;;;;;;4956665;28;20053;-80
2022/04/18 03:00:41;;;;;;;0.70;0.70;;;3.80;99.90;;;;;;4940675;28;20483;-79
2022/04/18 03:03:10;;;;;;;0.80;0.80;;;3.70;99.90;;;;;;4968549;28;20105;-79
2022/04/18 03:05:35;;;;;;;1.05;1.05;;;3.70;99.90;;;;;;4936568;28;20106;-80
2022/04/18 03:08:01;;;;;;;0.70;0.70;;;3.90;99.90;;;;;;4954709;28;20047;-80
2022/04/18 03:13:11;;;;;;;0.60;0.60;;;3.70;99.90;;;;;;4972064;28;20042;-79
2022/04/18 03:15:36;;;;;;;0.70;0.70;;;3.70;99.90;;;;;;4934293;28;20050;-82
2022/04/18 03:18:02;;;;;;;0.60;0.60;;;3.60;99.90;;;;;;4966709;28;20047;-82
2022/04/18 03:20:28;;;;;;;0.52;0.52;;;3.60;99.90;;;;;;4955821;28;20131;-80
2022/04/18 03:22:53;;;;;;;0.70;0.70;;;3.60;99.90;;;;;;4939083;28;20384;-80
2022/04/18 03:25:19;;;;;;;0.75;0.75;;;3.50;99.90;;;;;;4971431;28;20092;-79
2022/04/18 03:27:45;;;;;;;0.70;0.70;;;3.50;99.90;;;;;;4971333;28;20039;-80
2022/04/18 03:30:10;;;;;;;0.70;0.70;;;3.50;99.90;;;;;;5034636;28;20039;-81
2022/04/18 03:32:36;;;;;;;0.70;0.70;;;3.50;99.90;;;;;;4936733;29;20047;-82
2022/04/18 03:35:02;;;;;;;0.70;0.70;;;3.40;99.90;;;;;;4971609;28;20329;-80
2022/04/18 03:40:12;;;;;;;0.70;0.70;;;3.30;99.90;;;;;;5029753;28;20043;-80
2022/04/18 03:42:37;;;;;;;0.70;0.70;;;3.30;99.90;;;;;;4971576;28;20165;-79
2022/04/18 03:45:05;;;;;;;0.70;0.70;;;3.30;99.90;;;;;;4957547;28;20145;-77
2022/04/18 03:47:30;;;;;;;0.60;0.60;;;3.20;99.90;;;;;;4977642;28;20047;-78
2022/04/18 03:49:57;;;;;;;0.70;0.70;;;3.20;99.90;;;;;;4971816;28;20545;-79
2022/04/18 03:52:23;;;;;;;0.70;0.70;;;3.20;99.90;;;;;;4987377;28;20053;-80
2022/04/18 03:54:50;;;;;;;0.70;0.70;;;3.20;99.90;;;;;;4956036;28;20039;-80
2022/04/18 03:57:16;;;;;;;0.60;0.60;;;3.10;99.90;;;;;;4988356;28;20412;-81
2022/04/18 03:59:42;;;;;;;0.75;0.75;;;3.10;99.90;;;;;;4988544;28;20050;-81
2022/04/18 04:02:08;;;;;;;0.70;0.70;;;3.10;99.90;;;;;;4974271;28;20456;-81
2022/04/18 04:04:35;;;;;;;0.63;0.63;;;3.10;99.90;;;;;;4955579;28;20042;-80
2022/04/18 04:07:01;;;;;;;0.63;0.63;;;3.30;99.90;;;;;;4970604;28;20053;-79
2022/04/18 04:09:26;;;;;;;0.75;0.75;;;3.20;99.90;;;;;;5038391;28;20375;-80
2022/04/18 04:11:52;;;;;;;0.68;0.68;;;3.20;99.90;;;;;;4954393;28;20039;-80
2022/04/18 04:14:18;;;;;;;0.80;0.80;;;3.50;99.90;;;;;;4953963;28;20043;-80
2022/04/18 04:16:44;;;;;;;0.80;0.80;;;3.10;99.90;;;;;;4954385;28;20065;-80
2022/04/18 04:19:10;;;;;;;0.70;0.70;;;3.20;99.90;;;;;;4952309;28;20047;-81
2022/04/18 04:21:35;;;;;;;0.60;0.60;;;3.10;99.90;;;;;;4950239;28;20099;-81
2022/04/18 04:24:02;;;;;;;0.50;0.50;;;3.10;99.90;;;;;;4951102;28;20051;-80
2022/04/18 04:26:28;;;;;;;0.65;0.65;;;3.10;99.90;;;;;;4953775;28;20110;-80
2022/04/18 04:28:54;;;;;;;;;;;3.00;99.90;;;;;;4955054;28;20062;-79
2022/04/18 04:31:20;;;;;;;0.80;0.80;;;3.10;99.90;;;;;;4955722;28;19918;-79
2022/04/18 04:33:45;;;;;;;0.65;0.65;;;3.40;99.90;;;;;;4940007;28;20046;-77
2022/04/18 04:36:15;;;;;;;0.82;0.82;;;3.10;99.90;;;;;;4958574;28;20558;-81
2022/04/18 04:38:41;;;;;;;0.82;0.82;;;3.10;99.90;;;;;;4971568;28;20557;-80
2022/04/18 04:41:07;;;;;;;0.68;0.68;;;3.50;99.90;;;;;;4943946;28;20054;-78
2022/04/18 04:43:33;;;;;;;0.60;0.60;;;3.20;99.90;;;;;;4976604;28;20472;-80
2022/04/18 04:46:02;;;;;;;0.70;0.70;;;3.20;99.90;;;;;;4979726;28;20058;-79
2022/04/18 04:48:28;;;;;;;0.70;0.70;;;3.10;99.90;;;;;;4976717;28;20047;-78
2022/04/18 04:50:54;;;;;;;0.60;0.60;;;3.20;99.90;;;;;;4975875;28;20038;-80
2022/04/18 04:53:20;;;;;;;0.70;0.70;;;3.30;99.90;;;;;;4937929;29;20051;-80
2022/04/18 04:55:46;;;;;;;0.80;0.80;;;4.10;99.90;;;;;;4969906;28;20057;-80
2022/04/18 04:58:12;;;;;;;0.70;0.70;;;3.50;99.90;;;;;;4956016;28;20082;-81
2022/04/18 05:00:38;;;;;;;;;;;4.30;99.90;;;;;;4952835;28;20081;-79
2022/04/18 05:03:05;;;;;;;0.77;0.77;;;3.70;99.90;;;;;;4956874;28;19922;-79
2022/04/18 05:05:32;;;;;;;0.75;0.75;;;3.70;99.90;;;;;;4971690;28;20143;-83
2022/04/18 05:07:58;;;;;;;0.70;0.70;;;3.80;99.90;;;;;;4980395;28;20062;-81
2022/04/18 05:10:23;;;;;;;0.60;0.60;;;3.80;99.90;;;;;;4969272;28;20039;-81
2022/04/18 05:12:49;;;;;;;0.70;0.70;;;3.80;99.90;;;;;;4956938;28;20057;-79
2022/04/18 05:15:15;;;;;;;1.10;1.05;;;3.90;99.90;;;;;;4958573;28;20054;-80
2022/04/18 05:17:41;;;;;;;2.05;1.27;;;4.00;99.90;;;;;;4966527;28;20047;-79
2022/04/18 05:20:07;;;;;;;0.80;0.80;;;4.00;99.90;;;;;;4973229;28;20440;-85
2022/04/18 05:22:34;;;;;;;0.60;0.60;;;4.00;99.90;;;;;;4971925;28;20050;-79
2022/04/18 05:24:59;;;;;;;1.42;1.42;;;4.10;99.90;;;;;;4973048;28;20488;-82
2022/04/18 05:27:25;;;;;;;0.85;0.85;;;4.10;99.90;;;;;;4945359;28;20096;-80
2022/04/18 05:29:51;;;;;;;0.70;0.70;;;4.20;99.90;;;;;;4958082;28;20122;-79
2022/04/18 05:32:17;;;;;;;0.68;0.68;;;4.30;99.90;;;;;;5043274;28;20546;-81
2022/04/18 05:34:43;;;;;;;;;;;4.40;99.90;;;;;;5043023;28;20042;-79
2022/04/18 05:37:09;;;;;;;0.63;0.63;;;4.50;99.90;;;;;;4975022;28;19925;-80
2022/04/18 05:39:35;;;;;;;0.50;0.50;;;4.70;99.90;;;;;;4949416;28;20069;-81
2022/04/18 05:42:01;;;;;;;0.70;0.70;;;4.80;99.90;;;;;;4973537;28;20072;-80
2022/04/18 05:44:27;;;;;;;0.68;0.68;;;5.00;99.90;;;;;;4957475;28;20043;-79
2022/04/18 05:46:53;;;;;;;0.75;0.75;;;5.10;99.90;;;;;;4974351;28;20176;-79
2022/04/18 05:49:19;;;;;;;0.68;0.68;;;5.30;99.90;;;;;;4961008;28;20070;-81
2022/04/18 05:51:44;;;;;;;0.68;0.68;;;5.30;99.90;;;;;;4974442;28;20067;-79
2022/04/18 05:54:10;;;;;;;0.68;0.68;;;5.50;99.90;;;;;;4954716;29;20047;-79
2022/04/18 05:56:36;;;;;;;0.60;0.60;;;5.60;99.90;;;;;;4948585;28;20365;-77
2022/04/18 05:59:02;;;;;;;0.50;0.50;;;5.80;99.90;;;;;;4941308;28;20089;-81
2022/04/18 06:01:29;;;;;;;0.60;0.60;;;6.30;99.90;;;;;;4990682;28;20050;-80
2022/04/18 06:03:55;;;;;;;4.20;3.85;;;6.10;99.90;;;;;;4975277;28;20050;-82
2022/04/18 06:06:21;;;;;;;0.50;0.50;;;6.10;99.90;;;;;;4957129;28;20039;-80
2022/04/18 06:08:47;;;;;;;0.93;0.93;;;6.40;99.90;;;;;;5041153;28;20065;-81
2022/04/18 06:11:13;;;;;;;0.40;0.40;;;6.60;99.90;;;;;;4972259;28;20050;-80
2022/04/18 06:13:39;;;;;;;0.60;0.60;;;6.80;99.90;;;;;;4941390;28;20129;-80
2022/04/18 06:16:05;;;;;;;1.00;1.00;;;7.30;99.90;;;;;;5041343;28;20046;-80
2022/04/18 06:18:32;;;;;;;0.90;0.90;;;7.10;99.90;;;;;;4972425;28;20144;-84
2022/04/18 06:20:58;;;;;;;0.40;0.40;;;7.20;99.90;;;;;;4971429;28;20043;-80
2022/04/18 06:23:30;;;;;;;0.52;0.52;;;7.30;99.90;;;;;;4942564;28;20541;-82
2022/04/18 06:25:56;;;;;;;0.70;0.70;;;7.50;99.90;;;;;;4956389;28;20149;-82
2022/04/18 06:28:21;;;;;;;1.20;1.10;;;7.70;99.90;;;;;;4956783;28;20112;-81
2022/04/18 06:30:47;;;;;;;0.50;0.50;;;7.70;99.90;;;;;;4972316;28;20043;-82
2022/04/18 06:33:13;;;;;;;0.85;0.85;;;7.90;99.90;;;;;;4942543;28;20040;-82
2022/04/18 06:35:41;;;;;;;;;;;8.00;99.90;;;;;;4957603;29;20035;-81
2022/04/18 06:38:08;;;;;;;1.75;1.15;;;8.20;99.90;;;;;;4960073;28;19965;-84
2022/04/18 06:40:34;;;;;;;0.90;0.82;;;8.30;99.90;;;;;;4954269;28;20043;-82
2022/04/18 06:42:59;;;;;;;1.27;1.27;;;8.40;99.90;;;;;;4954742;29;20524;-82
2022/04/18 06:45:27;;;;;;;0.50;0.50;;;8.50;99.90;;;;;;4957828;28;20043;-81
2022/04/18 06:47:53;;;;;;;0.70;0.70;;;8.60;99.90;;;;;;4942752;28;20043;-81
2022/04/18 06:50:19;;;;;;;0.40;0.40;;;8.80;99.90;;;;;;4958420;28;20043;-83
2022/04/18 06:52:46;;;;;;;0.55;0.55;;;8.90;99.90;;;;;;4956246;28;20045;-80
2022/04/18 06:55:12;;;;;;;0.70;0.70;;;9.00;99.90;;;;;;4956462;28;20047;-83
2022/04/18 06:57:38;;;;;;;0.45;0.45;;;9.10;99.90;;;;;;4988461;28;20066;-80
2022/04/18 07:00:05;;;;;;;0.50;0.50;;;9.30;99.90;;;;;;4939747;28;20046;-81
2022/04/18 07:02:32;;;;;;;0.45;0.45;;;9.30;99.90;;;;;;4968563;28;20043;-79
2022/04/18 07:04:57;;;;;;;0.63;0.63;;;9.40;99.90;;;;;;4964042;28;20126;-80
2022/04/18 07:07:23;;;;;;;0.80;0.80;;;9.40;99.90;;;;;;4970809;28;20130;-81
2022/04/18 07:09:49;;;;;;;0.90;0.90;;;9.60;99.90;;;;;;4955028;28;20068;-82
2022/04/18 07:12:22;;;;;;;0.70;0.70;;;9.70;99.90;;;;;;4971292;28;20115;-79
2022/04/18 07:14:49;;;;;;;0.57;0.57;;;9.70;99.90;;;;;;4971951;28;20054;-82
2022/04/18 07:17:14;;;;;;;0.60;0.60;;;9.80;99.90;;;;;;4955095;28;20042;-81
2022/04/18 07:19:40;;;;;;;0.60;0.60;;;9.90;99.90;;;;;;4955876;28;20050;-80
2022/04/18 07:22:06;;;;;;;3.17;1.20;;;10.00;99.90;;;;;;4941934;28;20054;-79
2022/04/18 07:24:32;;;;;;;0.75;0.73;;;10.10;99.90;;;;;;4956342;28;20039;-79
2022/04/18 07:27:01;;;;;;;0.45;0.45;;;10.30;99.90;;;;;;4955062;28;20047;-79
2022/04/18 07:29:27;;;;;;;1.17;0.85;;;10.20;99.90;;;;;;4955226;28;20046;-81
2022/04/18 07:31:53;;;;;;;0.90;0.90;;;10.20;99.90;;;;;;4956515;28;20111;-80
2022/04/18 07:34:19;;;;;;;;;;;10.40;99.90;;;;;;4972013;28;20051;-80
2022/04/18 07:36:45;;;;;;;0.63;0.63;;;10.50;99.90;;;;;;4964036;28;19925;-79
2022/04/18 07:39:11;;;;;;;0.63;0.63;;;10.50;99.90;;;;;;4948149;28;20049;-80
2022/04/18 07:41:36;;;;;;;0.60;0.60;;;10.60;99.90;;;;;;4964149;28;20043;-82
2022/04/18 07:44:03;;;;;;;0.77;0.77;;;10.70;99.90;;;;;;4981611;28;20086;-81
2022/04/18 07:46:29;;;;;;;0.57;0.57;;;10.80;99.90;;;;;;5038367;28;20070;-80
2022/04/18 07:48:56;;;;;;;;;;;10.90;99.90;;;;;;4955046;28;20118;-82
2022/04/18 07:51:41;;;;;;;0.50;0.50;;;11.00;99.90;;;;;;4954935;28;19922;-83
2022/04/18 07:54:10;;;;;;;1.77;0.70;;;11.10;99.80;;;;;;4950857;29;20051;-81
2022/04/18 07:56:36;;;;;;;0.90;0.90;;;11.20;99.80;;;;;;4951793;29;20416;-79
2022/04/18 07:59:02;;;;;;;;;;;11.30;99.50;;;;;;4968813;28;20108;-81
2022/04/18 08:01:28;;;;;;;0.47;0.47;;;11.40;98.30;;;;;;4955558;28;19926;-82
2022/04/18 08:03:56;;;;;;;0.73;0.73;;;11.50;98.40;;;;;;4954692;28;20074;-80
2022/04/18 08:06:22;;;;;;;0.50;0.50;;;11.60;98.00;;;;;;4951274;29;20054;-81
2022/04/18 08:08:48;;;;;;;0.82;0.82;;;11.70;97.70;;;;;;4966384;28;20377;-82
2022/04/18 08:11:15;;;;;;;0.90;0.82;;;11.80;97.00;;;;;;4951577;28;20082;-82
2022/04/18 08:13:45;;;;;;;1.02;0.90;;;11.90;97.40;;;;;;4983617;28;20076;-82
2022/04/18 08:16:12;;;;;;;1.40;1.13;;;11.90;96.90;;;;;;4970569;28;20046;-80
2022/04/18 08:18:39;;;;;;;0.75;0.75;;;12.10;96.20;;;;;;4969933;28;20058;-79
2022/04/18 08:21:09;;;;;;;0.60;0.60;;;12.10;96.20;;;;;;4988057;28;20538;-79
2022/04/18 08:23:35;;;;;;;0.60;0.60;;;12.20;96.00;;;;;;4955454;28;20042;-82
2022/04/18 08:26:02;;;;;;;2.15;1.52;;;12.30;96.30;;;;;;4951165;29;20449;-82
2022/04/18 08:28:28;;;;;;;2.67;1.67;;;12.40;95.80;;;;;;4959580;28;20082;-80
2022/04/18 08:30:54;;;;;;;0.50;0.50;;;12.50;94.50;;;;;;4963058;28;20183;-83
2022/04/18 08:33:20;;;;;;;;;;;12.50;93.30;;;;;;4954679;28;20461;-82
2022/04/18 08:35:46;;;;;;;0.80;0.80;;;12.60;93.80;;;;;;4954477;28;20004;-78
2022/04/18 08:38:12;;;;;;;;;;;12.70;94.00;;;;;;5018418;28;20108;-81
2022/04/18 08:40:40;;;;;;;0.50;0.50;;;12.70;93.70;;;;;;4927756;29;19973;-82
2022/04/18 08:43:06;;;;;;;0.50;0.50;;;12.80;93.20;;;;;;4957166;28;20084;-83
2022/04/18 08:45:32;;;;;;;0.68;0.68;;;12.90;92.40;;;;;;4937708;28;20039;-80
2022/04/18 08:53:31;;;;;;;0.70;0.70;;;13.10;92.30;;;;;;4969074;28;20049;-79
2022/04/18 08:55:59;;;;;;;0.50;0.50;;;13.20;92.50;;;;;;5029532;28;20493;-80
2022/04/18 08:58:26;;;;;;;0.50;0.50;;;13.20;92.40;;;;;;4962677;28;20043;-82
2022/04/18 09:00:54;;;;;;;0.60;0.60;;;13.30;92.10;;;;;;4941059;28;20488;-80
2022/04/18 09:03:20;;;;;;;0.55;0.55;;;13.40;91.70;;;;;;4959622;28;20039;-79
2022/04/18 09:05:46;;;;;;;0.45;0.45;;;13.50;91.50;;;;;;4952165;28;20121;-80
2022/04/18 09:08:12;;;;;;;1.17;1.17;;;13.60;91.20;;;;;;4968606;28;20555;-82
2022/04/18 09:10:40;;;;;;;1.10;1.00;;;13.70;91.40;;;;;;4948022;28;20106;-78
2022/04/18 09:13:11;;;;;;;5.90;2.95;;;13.80;91.50;;;;;;4950234;29;20063;-78
2022/04/18 09:15:37;;;;;;;1.13;1.13;;;13.90;91.10;;;;;;4936665;28;20061;-82
2022/04/18 09:18:17;;;;;;;0.75;0.75;;;14.00;91.50;;;;;;4996746;28;20347;-83
2022/04/18 09:20:51;;;;;;;4.18;1.20;;;14.10;91.00;;;;;;4958518;28;20130;-83
2022/04/18 09:23:29;;;;;;;0.55;0.50;;;14.10;91.10;;;;;;4956680;28;20108;-81
2022/04/18 09:26:17;;;;;;;0.60;0.60;;;14.20;88.60;;;;;;4975777;28;20128;-79
2022/04/18 09:28:42;;;;;;;;;;;14.30;90.40;;;;;;4970392;28;20058;-81
2022/04/18 09:31:12;;;;;;;0.45;0.45;;;14.50;91.00;;;;;;4953364;28;19922;-82
2022/04/18 09:33:38;;;;;;;0.30;0.30;;;14.50;89.20;;;;;;4957925;28;20049;-79
2022/04/18 09:36:08;;;;;;;0.32;0.32;;;14.60;90.00;;;;;;4970766;28;20042;-78
2022/04/18 09:38:44;;;;;;;0.30;0.30;;;14.70;88.10;;;;;;4985455;28;20410;-82
2022/04/18 09:41:13;;;;;;;0.38;0.38;;;14.70;86.90;;;;;;4969627;28;20039;-83
2022/04/18 09:43:47;;;;;;;0.52;0.52;;;14.80;83.30;;;;;;4969295;28;20496;-82
2022/04/18 09:46:14;;;;;;;0.45;0.45;;;14.80;85.90;;;;;;4985349;28;20043;-81
2022/04/18 09:48:45;;;;;;;0.30;0.30;;;14.90;84.50;;;;;;4958340;28;20051;-81
2022/04/18 09:51:14;;;;;;;0.88;0.88;;;15.00;89.00;;;;;;4952550;28;20122;-81
2022/04/18 09:53:44;;;;;;;3.13;0.90;;;15.30;88.00;;;;;;4951975;28;20400;-84
2022/04/18 09:56:17;;;;;;;0.60;0.60;;;15.40;82.60;;;;;;4955948;28;20159;-83
2022/04/18 09:58:43;;;;;;;1.20;1.20;;;15.40;84.70;;;;;;4938383;28;20086;-78
2022/04/18 10:01:10;;;;;;;;;;;15.50;84.90;;;;;;4947909;28;20372;-78
2022/04/18 10:03:36;;;;;;;0.90;0.90;;;15.60;81.80;;;;;;4963371;28;19919;-81
2022/04/18 10:06:03;;;;;;;0.60;0.55;;;15.70;81.80;;;;;;4955842;28;20116;-82
2022/04/18 10:08:29;;;;;;;3.30;1.63;;;15.80;82.60;;;;;;4967868;28;20043;-81
2022/04/18 10:10:57;;;;;;;;;;;15.90;82.50;;;;;;4977905;28;20120;-78
2022/04/18 10:13:23;;;;;;;0.73;0.73;;;15.90;79.60;;;;;;4954893;28;19922;-81
2022/04/18 10:15:51;;;;;;;0.32;0.32;;;16.00;79.50;;;;;;4956603;28;20372;-81
2022/04/18 10:18:17;;;;;;;0.90;0.90;;;16.10;82.80;;;;;;4971427;28;20043;-79
2022/04/18 10:20:58;;;;;;;0.85;0.85;;;16.20;82.20;;;;;;4972135;28;20126;-81
2022/04/18 10:23:38;;;;;;;0.63;0.63;;;16.30;78.40;;;;;;4987829;28;20118;-79
2022/04/18 10:26:23;;;;;;;0.70;0.70;;;16.30;78.50;;;;;;4943829;29;20468;-81
2022/04/18 10:28:51;;;;;;;0.80;0.80;;;16.40;79.40;;;;;;4960871;28;20144;-86
2022/04/18 10:31:39;;;;;;;0.63;0.63;;;16.50;80.00;;;;;;4972356;28;20053;-78
2022/04/18 10:34:06;;;;;;;0.50;0.50;;;16.60;74.70;;;;;;4989549;28;20111;-81
2022/04/18 10:36:33;;;;;;;1.55;0.73;;;16.70;78.10;;;;;;4943279;28;20357;-84
2022/04/18 10:39:07;;;;;;;0.65;0.40;;;16.70;76.30;;;;;;5021680;28;20053;-79
2022/04/18 10:41:39;;;;;;;0.70;0.70;;;16.80;75.70;;;;;;4975690;28;20416;-78
2022/04/18 10:44:10;;;;;;;0.63;0.63;;;16.90;75.70;;;;;;4956586;28;20079;-79
2022/04/18 10:47:00;;;;;;;1.60;1.40;;;17.00;72.00;;;;;;4972632;28;20538;-80
2022/04/18 10:49:31;;;;;;;1.42;0.93;;;17.00;71.20;;;;;;4956470;28;20039;-83
2022/04/18 10:52:05;;;;;;;0.40;0.40;;;17.10;71.40;;;;;;4944183;29;20040;-81
2022/04/18 10:54:31;;;;;;;0.43;0.43;;;17.20;69.80;;;;;;5020054;28;20911;-77
2022/04/18 10:57:16;;;;;;;0.60;0.60;;;17.30;69.80;;;;;;4947210;28;20059;-77
2022/04/18 10:59:45;;;;;;;1.52;1.42;;;17.50;69.50;;;;;;4971600;28;20658;-76
2022/04/18 11:02:44;;;;;;;0.30;0.30;;;17.50;61.00;;;;;;4955880;28;20126;-79
2022/04/18 11:05:10;;;;;;;0.30;0.30;;;17.60;65.80;;;;;;4971947;28;20035;-78
2022/04/18 11:07:41;;;;;;;0.50;0.50;;;17.60;58.00;;;;;;4973608;28;20141;-81
2022/04/18 11:10:18;;;;;;;0.50;0.50;;;17.70;55.70;;;;;;4971951;28;20047;-82
2022/04/18 11:12:44;;;;;;;0.28;0.28;;;17.80;60.20;;;;;;4971996;28;20047;-80
2022/04/18 11:15:10;;;;;;;0.30;0.30;;;17.90;61.50;;;;;;4938451;28;20035;-78
2022/04/18 11:17:40;;;;;;;;;;;18.00;60.10;;;;;;4955178;28;20517;-77
2022/04/18 11:20:28;;;;;;;0.65;0.65;;;18.10;60.50;;;;;;4956353;28;20388;-80
2022/04/18 11:23:16;;;;;;;1.25;0.68;;;18.20;60.30;;;;;;4971266;28;20047;-80
2022/04/18 11:26:02;;;;;;;1.02;0.70;;;18.20;60.10;;;;;;4944959;28;20043;-81
2022/04/18 11:28:36;;;;;;;0.38;0.38;;;18.30;57.60;;;;;;4956417;28;20042;-82
2022/04/18 11:31:16;;;;;;;2.63;0.40;;;18.40;61.70;;;;;;4950390;28;20038;-79
2022/04/18 11:33:42;;;;;;;0.73;0.73;;;18.40;60.20;;;;;;4960623;28;20149;-84
2022/04/18 11:36:10;;;;;;;0.75;0.75;;;18.50;58.60;;;;;;4954815;28;20122;-83
2022/04/18 11:38:36;;;;;;;0.50;0.50;;;18.50;58.70;;;;;;5038459;28;20058;-78
2022/04/18 11:41:12;;;;;;;;;;;18.50;60.50;;;;;;4987130;28;20042;-80
2022/04/18 11:43:38;;;;;;;0.32;0.32;;;18.70;60.30;;;;;;4970080;28;19922;-84
2022/04/18 11:46:07;;;;;;;1.08;0.60;;;18.80;56.40;;;;;;4987720;28;20396;-83
2022/04/18 11:48:34;;;;;;;0.20;0.20;;;18.90;53.70;;;;;;4975761;28;20039;-82
2022/04/18 11:51:02;;;;;;;0.40;0.40;;;18.90;57.00;;;;;;4952240;28;20039;-80
2022/04/18 11:53:35;;;;;;;0.47;0.47;;;18.90;56.50;;;;;;4970184;28;20118;-82
2022/04/18 11:56:05;;;;;;;0.30;0.30;;;18.90;57.10;;;;;;4949691;29;20055;-81
2022/04/18 11:58:36;;;;;;;0.40;0.40;;;19.00;57.50;;;;;;4948123;28;20078;-79
2022/04/18 12:06:45;;;;;;;0.30;0.30;;;19.30;60.00;;;;;;5027534;28;20047;-80
2022/04/18 12:09:13;;;;;;;0.43;0.43;;;19.40;58.40;;;;;;4937171;29;20102;-82
2022/04/18 12:11:39;;;;;;;0.30;0.30;;;19.40;55.10;;;;;;4947273;28;20572;-80
2022/04/18 12:14:05;;;;;;;;;;;19.30;54.90;;;;;;4987596;28;20122;-84
2022/04/18 12:16:39;;;;;;;0.30;0.30;;;19.40;55.90;;;;;;4954462;28;19921;-78
2022/04/18 12:19:06;;;;;;;0.40;0.40;;;19.60;58.30;;;;;;4986591;28;20435;-80
2022/04/18 12:21:33;;;;;;;0.88;0.73;;;19.80;57.40;;;;;;4970027;28;20594;-80
2022/04/18 12:24:00;;;;;;;0.38;0.38;;;19.80;57.10;;;;;;4985954;28;20054;-79
2022/04/18 12:26:30;;;;;;;0.43;0.43;;;19.90;56.10;;;;;;4972599;28;20075;-79
2022/04/18 12:29:07;;;;;;;0.30;0.30;;;20.00;54.50;;;;;;4970688;28;20510;-79
2022/04/18 12:31:32;;;;;;;0.60;0.60;;;20.00;52.50;;;;;;4953665;28;20047;-80
2022/04/18 12:33:58;;;;;;;;;;;19.90;54.20;;;;;;4953803;28;20104;-80
2022/04/18 12:36:33;;;;;;;1.05;1.05;;;19.90;55.70;;;;;;4949181;29;19923;-81
2022/04/18 12:39:00;;;;;;;1.42;1.33;;;20.10;51.60;;;;;;4965570;28;20047;-80
2022/04/18 12:41:30;;;;;;;0.40;0.40;;;20.00;52.20;;;;;;4953601;28;20466;-80
2022/04/18 12:43:56;;;;;;;1.30;1.20;;;20.10;52.80;;;;;;4971454;28;20074;-80
2022/04/18 12:46:32;;;;;;;0.50;0.40;;;20.20;50.80;;;;;;4969001;28;20578;-82
2022/04/18 12:49:08;;;;;;;0.52;0.52;;;20.30;53.70;;;;;;4956223;28;20047;-80
2022/04/18 12:51:39;;;;;;;0.80;0.80;;;20.60;53.50;;;;;;4985652;28;20046;-79
2022/04/18 12:54:17;;;;;;;0.47;0.47;;;20.80;51.80;;;;;;4969148;28;20083;-77
2022/04/18 12:56:47;;;;;;;0.60;0.60;;;20.80;50.30;;;;;;5029732;28;20066;-80
2022/04/18 12:59:14;;;;;;;0.47;0.47;;;20.90;49.90;;;;;;4966767;28;20051;-81
2022/04/18 13:01:40;;;;;;;1.27;0.30;;;21.10;52.10;;;;;;4954442;28;20403;-81
2022/04/18 13:04:21;;;;;;;1.27;0.38;;;21.30;48.00;;;;;;4956011;28;20046;-79
2022/04/18 13:07:06;;;;;;;0.20;0.20;;;21.50;52.00;;;;;;4968468;28;20054;-78
2022/04/18 13:09:32;;;;;;;0.40;0.40;;;21.70;47.80;;;;;;4986031;28;20099;-79
2022/04/18 13:12:03;;;;;;;0.95;0.95;;;21.90;49.30;;;;;;4968834;28;20169;-77
2022/04/18 13:14:29;;;;;;;0.20;0.20;;;21.90;45.50;;;;;;4968268;28;20078;-79
2022/04/18 13:17:10;;;;;;;0.57;0.57;;;22.00;49.50;;;;;;4968988;28;20039;-79
2022/04/18 13:19:37;;;;;;;0.50;0.50;;;22.00;45.90;;;;;;4952430;28;20051;-80
2022/04/18 13:22:03;;;;;;;0.20;0.20;;;22.30;48.70;;;;;;4967787;28;20125;-82
2022/04/18 13:24:29;;;;;;;0.17;0.17;;;22.50;46.50;;;;;;4968695;28;20135;-80